sensor_id;sensor_type;location;lat;lon;timestamp;P1;durP1;ratioP1;P2;durP2;ratioP2
64653;SDS011;51065;48.884;12.598;2024-03-02T00:00:18;27.33;;;12.70;;
64653;SDS011;51065;48.884;12.598;2024-03-02T00:02:46;28.38;;;13.35;;
64653;SDS011;51065;48.884;12.598;2024-03-02T00:05:13;28.73;;;13.77;;
64653;SDS011;51065;48.884;12.598;2024-03-02T00:07:44;32.03;;;13.13;;
64653;SDS011;51065;48.884;12.598;2024-03-02T00:10:11;30.17;;;13.30;;
64653;SDS011;51065;48.884;12.598;2024-03-02T00:12:41;28.10;;;13.10;;
64653;SDS011;51065;48.884;12.598;2024-03-02T00:15:53;29.15;;;14.45;;
64653;SDS011;51065;48.884;12.598;2024-03-02T00:18:08;34.95;;;15.95;;
64653;SDS011;51065;48.884;12.598;2024-03-02T00:20:35;34.38;;;15.20;;
64653;SDS011;51065;48.884;12.598;2024-03-02T00:23:05;29.77;;;13.68;;
64653;SDS011;51065;48.884;12.598;2024-03-02T00:25:51;29.98;;;13.80;;
64653;SDS011;51065;48.884;12.598;2024-03-02T00:28:25;28.83;;;13.60;;
64653;SDS011;51065;48.884;12.598;2024-03-02T00:33:19;34.42;;;14.02;;
64653;SDS011;51065;48.884;12.598;2024-03-02T00:35:46;30.10;;;13.43;;
64653;SDS011;51065;48.884;12.598;2024-03-02T00:38:12;33.45;;;15.30;;
64653;SDS011;51065;48.884;12.598;2024-03-02T00:40:41;28.38;;;13.63;;
64653;SDS011;51065;48.884;12.598;2024-03-02T00:43:33;32.95;;;14.52;;
64653;SDS011;51065;48.884;12.598;2024-03-02T00:46:07;32.38;;;16.05;;
64653;SDS011;51065;48.884;12.598;2024-03-02T00:48:34;29.23;;;14.88;;
64653;SDS011;51065;48.884;12.598;2024-03-02T00:51:03;35.33;;;15.98;;
64653;SDS011;51065;48.884;12.598;2024-03-02T00:53:29;37.42;;;15.95;;
64653;SDS011;51065;48.884;12.598;2024-03-02T00:55:56;32.80;;;16.60;;
64653;SDS011;51065;48.884;12.598;2024-03-02T00:58:22;31.25;;;14.25;;
64653;SDS011;51065;48.884;12.598;2024-03-02T01:00:47;31.75;;;14.00;;
64653;SDS011;51065;48.884;12.598;2024-03-02T01:03:13;32.70;;;14.85;;
64653;SDS011;51065;48.884;12.598;2024-03-02T01:05:41;29.85;;;14.05;;
64653;SDS011;51065;48.884;12.598;2024-03-02T01:08:08;30.33;;;14.27;;
64653;SDS011;51065;48.884;12.598;2024-03-02T01:10:34;30.02;;;14.13;;
64653;SDS011;51065;48.884;12.598;2024-03-02T01:12:59;30.95;;;13.30;;
64653;SDS011;51065;48.884;12.598;2024-03-02T01:15:25;34.40;;;14.43;;
64653;SDS011;51065;48.884;12.598;2024-03-02T01:17:50;31.13;;;14.52;;
64653;SDS011;51065;48.884;12.598;2024-03-02T01:20:16;32.42;;;15.00;;
64653;SDS011;51065;48.884;12.598;2024-03-02T01:22:42;32.03;;;15.00;;
64653;SDS011;51065;48.884;12.598;2024-03-02T01:25:08;33.50;;;14.82;;
64653;SDS011;51065;48.884;12.598;2024-03-02T01:27:34;31.40;;;14.00;;
64653;SDS011;51065;48.884;12.598;2024-03-02T01:29:59;35.10;;;14.88;;
64653;SDS011;51065;48.884;12.598;2024-03-02T01:32:25;34.40;;;14.60;;
64653;SDS011;51065;48.884;12.598;2024-03-02T01:34:50;30.00;;;13.07;;
64653;SDS011;51065;48.884;12.598;2024-03-02T01:37:16;29.35;;;13.68;;
64653;SDS011;51065;48.884;12.598;2024-03-02T01:39:42;31.08;;;13.40;;
64653;SDS011;51065;48.884;12.598;2024-03-02T01:42:07;29.02;;;13.07;;
64653;SDS011;51065;48.884;12.598;2024-03-02T01:44:33;33.92;;;14.10;;
64653;SDS011;51065;48.884;12.598;2024-03-02T01:46:58;33.60;;;14.90;;
64653;SDS011;51065;48.884;12.598;2024-03-02T01:49:24;32.13;;;13.88;;
64653;SDS011;51065;48.884;12.598;2024-03-02T01:51:49;32.58;;;14.07;;
64653;SDS011;51065;48.884;12.598;2024-03-02T01:54:16;30.17;;;15.30;;
64653;SDS011;51065;48.884;12.598;2024-03-02T01:56:41;29.92;;;13.35;;
64653;SDS011;51065;48.884;12.598;2024-03-02T01:59:07;31.02;;;13.43;;
64653;SDS011;51065;48.884;12.598;2024-03-02T02:01:33;29.58;;;14.05;;
64653;SDS011;51065;48.884;12.598;2024-03-02T02:03:59;32.90;;;15.02;;
64653;SDS011;51065;48.884;12.598;2024-03-02T02:06:26;34.45;;;16.48;;
64653;SDS011;51065;48.884;12.598;2024-03-02T02:08:51;33.80;;;15.63;;
64653;SDS011;51065;48.884;12.598;2024-03-02T02:11:17;35.28;;;15.50;;
64653;SDS011;51065;48.884;12.598;2024-03-02T02:13:43;31.30;;;14.60;;
64653;SDS011;51065;48.884;12.598;2024-03-02T02:16:08;34.13;;;15.93;;
64653;SDS011;51065;48.884;12.598;2024-03-02T02:18:34;34.45;;;15.77;;
64653;SDS011;51065;48.884;12.598;2024-03-02T02:21:01;32.35;;;14.52;;
64653;SDS011;51065;48.884;12.598;2024-03-02T02:23:27;35.90;;;17.65;;
64653;SDS011;51065;48.884;12.598;2024-03-02T02:25:52;35.60;;;15.38;;
64653;SDS011;51065;48.884;12.598;2024-03-02T02:28:18;38.58;;;17.00;;
64653;SDS011;51065;48.884;12.598;2024-03-02T02:30:44;37.50;;;17.02;;
64653;SDS011;51065;48.884;12.598;2024-03-02T02:33:09;36.70;;;16.77;;
64653;SDS011;51065;48.884;12.598;2024-03-02T02:35:35;35.97;;;17.17;;
64653;SDS011;51065;48.884;12.598;2024-03-02T02:38:00;39.25;;;18.70;;
64653;SDS011;51065;48.884;12.598;2024-03-02T02:40:26;34.45;;;15.32;;
64653;SDS011;51065;48.884;12.598;2024-03-02T02:42:55;31.80;;;16.60;;
64653;SDS011;51065;48.884;12.598;2024-03-02T02:45:21;34.30;;;14.40;;
64653;SDS011;51065;48.884;12.598;2024-03-02T02:47:47;33.40;;;15.93;;
64653;SDS011;51065;48.884;12.598;2024-03-02T02:50:12;35.10;;;16.17;;
64653;SDS011;51065;48.884;12.598;2024-03-02T02:52:39;33.88;;;15.00;;
64653;SDS011;51065;48.884;12.598;2024-03-02T02:55:06;37.10;;;16.25;;
64653;SDS011;51065;48.884;12.598;2024-03-02T02:57:33;34.33;;;15.23;;
64653;SDS011;51065;48.884;12.598;2024-03-02T03:00:07;33.92;;;16.10;;
64653;SDS011;51065;48.884;12.598;2024-03-02T03:02:41;32.88;;;15.45;;
64653;SDS011;51065;48.884;12.598;2024-03-02T03:05:08;39.97;;;18.13;;
64653;SDS011;51065;48.884;12.598;2024-03-02T03:07:36;37.70;;;17.48;;
64653;SDS011;51065;48.884;12.598;2024-03-02T03:10:04;41.95;;;17.42;;
64653;SDS011;51065;48.884;12.598;2024-03-02T03:12:31;32.65;;;14.15;;
64653;SDS011;51065;48.884;12.598;2024-03-02T03:14:57;32.80;;;16.00;;
64653;SDS011;51065;48.884;12.598;2024-03-02T03:17:24;39.15;;;18.15;;
64653;SDS011;51065;48.884;12.598;2024-03-02T03:19:49;35.45;;;16.23;;
64653;SDS011;51065;48.884;12.598;2024-03-02T03:22:18;39.05;;;16.20;;
64653;SDS011;51065;48.884;12.598;2024-03-02T03:24:44;30.95;;;14.90;;
64653;SDS011;51065;48.884;12.598;2024-03-02T03:27:10;35.92;;;17.27;;
64653;SDS011;51065;48.884;12.598;2024-03-02T03:29:38;33.70;;;15.80;;
64653;SDS011;51065;48.884;12.598;2024-03-02T03:32:04;34.83;;;15.88;;
64653;SDS011;51065;48.884;12.598;2024-03-02T03:34:34;36.60;;;17.10;;
64653;SDS011;51065;48.884;12.598;2024-03-02T03:37:00;36.83;;;17.08;;
64653;SDS011;51065;48.884;12.598;2024-03-02T03:39:26;37.97;;;17.45;;
64653;SDS011;51065;48.884;12.598;2024-03-02T03:41:52;40.70;;;18.52;;
64653;SDS011;51065;48.884;12.598;2024-03-02T03:44:17;42.25;;;22.08;;
64653;SDS011;51065;48.884;12.598;2024-03-02T03:46:44;38.83;;;16.75;;
64653;SDS011;51065;48.884;12.598;2024-03-02T03:49:09;37.85;;;17.58;;
64653;SDS011;51065;48.884;12.598;2024-03-02T03:51:35;40.80;;;17.27;;
64653;SDS011;51065;48.884;12.598;2024-03-02T03:54:01;35.25;;;16.92;;
64653;SDS011;51065;48.884;12.598;2024-03-02T03:56:26;37.10;;;17.30;;
64653;SDS011;51065;48.884;12.598;2024-03-02T03:58:52;39.17;;;16.38;;
64653;SDS011;51065;48.884;12.598;2024-03-02T04:01:17;31.80;;;15.20;;
64653;SDS011;51065;48.884;12.598;2024-03-02T04:03:43;40.13;;;19.75;;
64653;SDS011;51065;48.884;12.598;2024-03-02T04:06:09;36.88;;;18.60;;
64653;SDS011;51065;48.884;12.598;2024-03-02T04:08:35;35.33;;;16.52;;
64653;SDS011;51065;48.884;12.598;2024-03-02T04:11:00;34.28;;;16.55;;
64653;SDS011;51065;48.884;12.598;2024-03-02T04:13:27;38.08;;;16.75;;
64653;SDS011;51065;48.884;12.598;2024-03-02T04:15:53;38.83;;;16.58;;
64653;SDS011;51065;48.884;12.598;2024-03-02T04:18:19;39.03;;;18.30;;
64653;SDS011;51065;48.884;12.598;2024-03-02T04:20:44;37.45;;;17.92;;
64653;SDS011;51065;48.884;12.598;2024-03-02T04:23:10;37.75;;;15.70;;
64653;SDS011;51065;48.884;12.598;2024-03-02T04:25:35;37.75;;;16.83;;
64653;SDS011;51065;48.884;12.598;2024-03-02T04:28:01;36.53;;;16.13;;
64653;SDS011;51065;48.884;12.598;2024-03-02T04:30:26;34.05;;;15.40;;
64653;SDS011;51065;48.884;12.598;2024-03-02T04:32:52;35.42;;;15.75;;
64653;SDS011;51065;48.884;12.598;2024-03-02T04:35:17;37.22;;;16.52;;
64653;SDS011;51065;48.884;12.598;2024-03-02T04:37:43;37.88;;;16.67;;
64653;SDS011;51065;48.884;12.598;2024-03-02T04:40:08;33.00;;;15.70;;
64653;SDS011;51065;48.884;12.598;2024-03-02T04:42:36;33.80;;;16.17;;
64653;SDS011;51065;48.884;12.598;2024-03-02T04:45:01;35.83;;;16.38;;
64653;SDS011;51065;48.884;12.598;2024-03-02T04:47:27;38.42;;;17.23;;
64653;SDS011;51065;48.884;12.598;2024-03-02T04:49:53;38.13;;;16.70;;
64653;SDS011;51065;48.884;12.598;2024-03-02T04:52:18;41.22;;;17.40;;
64653;SDS011;51065;48.884;12.598;2024-03-02T04:54:44;40.60;;;17.30;;
64653;SDS011;51065;48.884;12.598;2024-03-02T04:57:28;34.42;;;15.88;;
64653;SDS011;51065;48.884;12.598;2024-03-02T04:59:53;40.22;;;18.45;;
64653;SDS011;51065;48.884;12.598;2024-03-02T05:02:19;38.03;;;17.58;;
64653;SDS011;51065;48.884;12.598;2024-03-02T05:04:44;41.13;;;18.60;;
64653;SDS011;51065;48.884;12.598;2024-03-02T05:07:10;37.92;;;17.20;;
64653;SDS011;51065;48.884;12.598;2024-03-02T05:09:36;36.13;;;16.38;;
64653;SDS011;51065;48.884;12.598;2024-03-02T05:12:02;37.20;;;17.02;;
64653;SDS011;51065;48.884;12.598;2024-03-02T05:14:55;36.92;;;17.23;;
64653;SDS011;51065;48.884;12.598;2024-03-02T05:17:21;35.38;;;16.55;;
64653;SDS011;51065;48.884;12.598;2024-03-02T05:19:47;39.83;;;17.25;;
64653;SDS011;51065;48.884;12.598;2024-03-02T05:22:13;37.88;;;16.63;;
64653;SDS011;51065;48.884;12.598;2024-03-02T05:24:38;34.80;;;15.77;;
64653;SDS011;51065;48.884;12.598;2024-03-02T05:27:04;38.72;;;18.70;;
64653;SDS011;51065;48.884;12.598;2024-03-02T05:29:31;45.40;;;19.95;;
64653;SDS011;51065;48.884;12.598;2024-03-02T05:31:56;43.53;;;19.17;;
64653;SDS011;51065;48.884;12.598;2024-03-02T05:34:22;44.78;;;18.95;;
64653;SDS011;51065;48.884;12.598;2024-03-02T05:36:47;43.15;;;18.45;;
64653;SDS011;51065;48.884;12.598;2024-03-02T05:39:13;46.85;;;19.58;;
64653;SDS011;51065;48.884;12.598;2024-03-02T05:41:38;46.67;;;17.60;;
64653;SDS011;51065;48.884;12.598;2024-03-02T05:44:04;45.85;;;20.27;;
64653;SDS011;51065;48.884;12.598;2024-03-02T05:46:30;44.85;;;17.95;;
64653;SDS011;51065;48.884;12.598;2024-03-02T05:49:02;39.97;;;18.10;;
64653;SDS011;51065;48.884;12.598;2024-03-02T05:51:27;44.50;;;18.30;;
64653;SDS011;51065;48.884;12.598;2024-03-02T05:53:53;45.78;;;20.05;;
64653;SDS011;51065;48.884;12.598;2024-03-02T05:56:18;46.70;;;20.52;;
64653;SDS011;51065;48.884;12.598;2024-03-02T05:58:44;44.38;;;20.15;;
64653;SDS011;51065;48.884;12.598;2024-03-02T06:01:26;47.75;;;20.55;;
64653;SDS011;51065;48.884;12.598;2024-03-02T06:03:53;45.15;;;18.98;;
64653;SDS011;51065;48.884;12.598;2024-03-02T06:06:23;53.90;;;23.58;;
64653;SDS011;51065;48.884;12.598;2024-03-02T06:08:49;52.78;;;21.85;;
64653;SDS011;51065;48.884;12.598;2024-03-02T06:11:15;51.40;;;23.13;;
64653;SDS011;51065;48.884;12.598;2024-03-02T06:13:41;50.53;;;20.27;;
64653;SDS011;51065;48.884;12.598;2024-03-02T06:16:06;52.92;;;23.60;;
64653;SDS011;51065;48.884;12.598;2024-03-02T06:18:33;55.00;;;24.00;;
64653;SDS011;51065;48.884;12.598;2024-03-02T06:20:59;49.35;;;19.77;;
64653;SDS011;51065;48.884;12.598;2024-03-02T06:23:25;50.13;;;17.55;;
64653;SDS011;51065;48.884;12.598;2024-03-02T06:25:51;50.42;;;20.20;;
64653;SDS011;51065;48.884;12.598;2024-03-02T06:28:17;45.17;;;18.50;;
64653;SDS011;51065;48.884;12.598;2024-03-02T06:30:43;48.95;;;21.65;;
64653;SDS011;51065;48.884;12.598;2024-03-02T06:33:09;44.30;;;17.50;;
64653;SDS011;51065;48.884;12.598;2024-03-02T06:35:34;44.90;;;18.67;;
64653;SDS011;51065;48.884;12.598;2024-03-02T06:38:04;43.30;;;16.92;;
64653;SDS011;51065;48.884;12.598;2024-03-02T06:40:29;42.97;;;18.35;;
64653;SDS011;51065;48.884;12.598;2024-03-02T06:42:55;43.40;;;19.05;;
64653;SDS011;51065;48.884;12.598;2024-03-02T06:45:20;39.85;;;16.85;;
64653;SDS011;51065;48.884;12.598;2024-03-02T06:47:46;44.08;;;18.23;;
64653;SDS011;51065;48.884;12.598;2024-03-02T06:50:12;40.20;;;18.13;;
64653;SDS011;51065;48.884;12.598;2024-03-02T06:52:37;45.30;;;20.15;;
64653;SDS011;51065;48.884;12.598;2024-03-02T06:55:03;42.28;;;18.70;;
64653;SDS011;51065;48.884;12.598;2024-03-02T06:57:29;40.25;;;17.27;;
64653;SDS011;51065;48.884;12.598;2024-03-02T06:59:55;41.90;;;18.13;;
64653;SDS011;51065;48.884;12.598;2024-03-02T07:02:23;42.47;;;18.52;;
64653;SDS011;51065;48.884;12.598;2024-03-02T07:04:51;38.55;;;17.13;;
64653;SDS011;51065;48.884;12.598;2024-03-02T07:07:20;37.53;;;18.70;;
64653;SDS011;51065;48.884;12.598;2024-03-02T07:09:46;42.40;;;17.88;;
64653;SDS011;51065;48.884;12.598;2024-03-02T07:12:12;39.70;;;20.17;;
64653;SDS011;51065;48.884;12.598;2024-03-02T07:14:38;43.30;;;19.38;;
64653;SDS011;51065;48.884;12.598;2024-03-02T07:17:22;44.95;;;19.77;;
64653;SDS011;51065;48.884;12.598;2024-03-02T07:19:48;47.05;;;18.42;;
64653;SDS011;51065;48.884;12.598;2024-03-02T07:22:13;44.88;;;18.30;;
64653;SDS011;51065;48.884;12.598;2024-03-02T07:24:40;39.78;;;17.73;;
64653;SDS011;51065;48.884;12.598;2024-03-02T07:27:06;37.28;;;17.13;;
64653;SDS011;51065;48.884;12.598;2024-03-02T07:29:33;42.60;;;19.60;;
64653;SDS011;51065;48.884;12.598;2024-03-02T07:31:59;38.80;;;16.25;;
64653;SDS011;51065;48.884;12.598;2024-03-02T07:34:24;37.35;;;17.50;;
64653;SDS011;51065;48.884;12.598;2024-03-02T07:36:50;37.45;;;17.15;;
64653;SDS011;51065;48.884;12.598;2024-03-02T07:39:16;39.30;;;17.17;;
64653;SDS011;51065;48.884;12.598;2024-03-02T07:41:41;36.28;;;16.42;;
64653;SDS011;51065;48.884;12.598;2024-03-02T07:44:07;38.45;;;17.67;;
64653;SDS011;51065;48.884;12.598;2024-03-02T07:46:33;36.20;;;16.80;;
64653;SDS011;51065;48.884;12.598;2024-03-02T07:48:58;39.38;;;18.38;;
64653;SDS011;51065;48.884;12.598;2024-03-02T07:51:24;36.67;;;16.42;;
64653;SDS011;51065;48.884;12.598;2024-03-02T07:53:49;32.28;;;14.95;;
64653;SDS011;51065;48.884;12.598;2024-03-02T07:56:15;35.65;;;17.52;;
64653;SDS011;51065;48.884;12.598;2024-03-02T07:58:48;35.65;;;16.45;;
64653;SDS011;51065;48.884;12.598;2024-03-02T08:01:14;40.83;;;19.27;;
64653;SDS011;51065;48.884;12.598;2024-03-02T08:03:40;34.42;;;16.85;;
64653;SDS011;51065;48.884;12.598;2024-03-02T08:06:06;38.78;;;17.73;;
64653;SDS011;51065;48.884;12.598;2024-03-02T08:08:32;36.90;;;17.20;;
64653;SDS011;51065;48.884;12.598;2024-03-02T08:10:57;34.80;;;16.33;;
64653;SDS011;51065;48.884;12.598;2024-03-02T08:13:23;38.05;;;17.00;;
64653;SDS011;51065;48.884;12.598;2024-03-02T08:15:48;38.88;;;17.50;;
64653;SDS011;51065;48.884;12.598;2024-03-02T08:18:14;38.90;;;17.20;;
64653;SDS011;51065;48.884;12.598;2024-03-02T08:20:40;36.75;;;17.02;;
64653;SDS011;51065;48.884;12.598;2024-03-02T08:23:06;39.15;;;17.85;;
64653;SDS011;51065;48.884;12.598;2024-03-02T08:25:33;35.42;;;16.48;;
64653;SDS011;51065;48.884;12.598;2024-03-02T08:27:58;35.30;;;17.23;;
64653;SDS011;51065;48.884;12.598;2024-03-02T08:30:24;31.25;;;15.57;;
64653;SDS011;51065;48.884;12.598;2024-03-02T08:32:50;34.58;;;17.45;;
64653;SDS011;51065;48.884;12.598;2024-03-02T08:35:15;33.00;;;15.07;;
64653;SDS011;51065;48.884;12.598;2024-03-02T08:37:42;32.97;;;16.77;;
64653;SDS011;51065;48.884;12.598;2024-03-02T08:40:08;35.85;;;16.88;;
64653;SDS011;51065;48.884;12.598;2024-03-02T08:42:34;33.42;;;16.60;;
64653;SDS011;51065;48.884;12.598;2024-03-02T08:45:00;31.73;;;15.25;;
64653;SDS011;51065;48.884;12.598;2024-03-02T08:47:26;32.25;;;15.73;;
64653;SDS011;51065;48.884;12.598;2024-03-02T08:49:52;35.47;;;18.08;;
64653;SDS011;51065;48.884;12.598;2024-03-02T08:52:18;32.58;;;15.40;;
64653;SDS011;51065;48.884;12.598;2024-03-02T08:54:43;32.75;;;16.98;;
64653;SDS011;51065;48.884;12.598;2024-03-02T08:57:09;32.33;;;15.60;;
64653;SDS011;51065;48.884;12.598;2024-03-02T08:59:34;30.60;;;15.88;;
64653;SDS011;51065;48.884;12.598;2024-03-02T09:02:00;27.60;;;13.80;;
64653;SDS011;51065;48.884;12.598;2024-03-02T09:04:29;34.25;;;15.98;;
64653;SDS011;51065;48.884;12.598;2024-03-02T09:06:54;31.65;;;15.63;;
64653;SDS011;51065;48.884;12.598;2024-03-02T09:09:20;29.48;;;12.40;;
64653;SDS011;51065;48.884;12.598;2024-03-02T09:11:46;30.63;;;15.00;;
64653;SDS011;51065;48.884;12.598;2024-03-02T09:14:11;27.17;;;13.43;;
64653;SDS011;51065;48.884;12.598;2024-03-02T09:16:37;28.67;;;13.45;;
64653;SDS011;51065;48.884;12.598;2024-03-02T09:19:03;28.40;;;13.98;;
64653;SDS011;51065;48.884;12.598;2024-03-02T09:21:28;28.92;;;13.85;;
64653;SDS011;51065;48.884;12.598;2024-03-02T09:23:55;25.38;;;12.32;;
64653;SDS011;51065;48.884;12.598;2024-03-02T09:26:21;28.58;;;15.38;;
64653;SDS011;51065;48.884;12.598;2024-03-02T09:28:47;27.27;;;13.43;;
64653;SDS011;51065;48.884;12.598;2024-03-02T09:31:13;28.02;;;13.82;;
64653;SDS011;51065;48.884;12.598;2024-03-02T09:33:38;28.85;;;16.83;;
64653;SDS011;51065;48.884;12.598;2024-03-02T09:36:04;26.00;;;12.23;;
64653;SDS011;51065;48.884;12.598;2024-03-02T09:38:31;24.58;;;11.90;;
64653;SDS011;51065;48.884;12.598;2024-03-02T09:40:58;24.25;;;13.68;;
64653;SDS011;51065;48.884;12.598;2024-03-02T09:43:25;24.92;;;11.70;;
64653;SDS011;51065;48.884;12.598;2024-03-02T09:45:51;24.15;;;11.18;;
64653;SDS011;51065;48.884;12.598;2024-03-02T09:48:17;23.08;;;10.95;;
64653;SDS011;51065;48.884;12.598;2024-03-02T09:50:45;23.58;;;11.38;;
64653;SDS011;51065;48.884;12.598;2024-03-02T09:53:11;22.48;;;10.00;;
64653;SDS011;51065;48.884;12.598;2024-03-02T09:55:38;24.90;;;13.02;;
64653;SDS011;51065;48.884;12.598;2024-03-02T09:58:07;24.38;;;10.65;;
64653;SDS011;51065;48.884;12.598;2024-03-02T10:00:33;23.55;;;11.60;;
64653;SDS011;51065;48.884;12.598;2024-03-02T10:02:59;20.27;;;9.77;;
64653;SDS011;51065;48.884;12.598;2024-03-02T10:05:25;22.95;;;10.70;;
64653;SDS011;51065;48.884;12.598;2024-03-02T10:08:00;22.48;;;9.93;;
64653;SDS011;51065;48.884;12.598;2024-03-02T10:10:34;22.65;;;10.45;;
64653;SDS011;51065;48.884;12.598;2024-03-02T10:13:08;24.08;;;8.85;;
64653;SDS011;51065;48.884;12.598;2024-03-02T10:15:35;22.80;;;10.05;;
64653;SDS011;51065;48.884;12.598;2024-03-02T10:18:10;23.75;;;10.43;;
64653;SDS011;51065;48.884;12.598;2024-03-02T10:20:37;21.10;;;9.70;;
64653;SDS011;51065;48.884;12.598;2024-03-02T10:23:09;23.17;;;10.63;;
64653;SDS011;51065;48.884;12.598;2024-03-02T10:25:40;22.25;;;9.93;;
64653;SDS011;51065;48.884;12.598;2024-03-02T10:28:06;24.95;;;12.65;;
64653;SDS011;51065;48.884;12.598;2024-03-02T10:30:32;23.75;;;10.18;;
64653;SDS011;51065;48.884;12.598;2024-03-02T10:32:58;21.63;;;9.70;;
64653;SDS011;51065;48.884;12.598;2024-03-02T10:35:24;19.98;;;8.75;;
64653;SDS011;51065;48.884;12.598;2024-03-02T10:37:54;19.85;;;9.98;;
64653;SDS011;51065;48.884;12.598;2024-03-02T10:40:21;21.38;;;9.60;;
64653;SDS011;51065;48.884;12.598;2024-03-02T10:42:47;21.13;;;8.15;;
64653;SDS011;51065;48.884;12.598;2024-03-02T10:45:15;19.40;;;8.20;;
64653;SDS011;51065;48.884;12.598;2024-03-02T10:47:42;20.27;;;8.30;;
64653;SDS011;51065;48.884;12.598;2024-03-02T10:50:08;19.27;;;7.93;;
64653;SDS011;51065;48.884;12.598;2024-03-02T10:52:34;21.00;;;8.98;;
64653;SDS011;51065;48.884;12.598;2024-03-02T10:55:00;20.58;;;9.75;;
64653;SDS011;51065;48.884;12.598;2024-03-02T10:57:26;19.20;;;8.80;;
64653;SDS011;51065;48.884;12.598;2024-03-02T10:59:57;22.35;;;10.07;;
64653;SDS011;51065;48.884;12.598;2024-03-02T11:02:28;20.05;;;8.93;;
64653;SDS011;51065;48.884;12.598;2024-03-02T11:04:56;19.67;;;8.13;;
64653;SDS011;51065;48.884;12.598;2024-03-02T11:07:24;20.60;;;9.30;;
64653;SDS011;51065;48.884;12.598;2024-03-02T11:09:57;20.85;;;8.93;;
64653;SDS011;51065;48.884;12.598;2024-03-02T11:12:29;22.58;;;9.80;;
64653;SDS011;51065;48.884;12.598;2024-03-02T11:14:56;21.60;;;10.35;;
64653;SDS011;51065;48.884;12.598;2024-03-02T11:17:23;22.73;;;10.63;;
64653;SDS011;51065;48.884;12.598;2024-03-02T11:19:51;20.52;;;8.95;;
64653;SDS011;51065;48.884;12.598;2024-03-02T11:22:17;21.35;;;9.57;;
64653;SDS011;51065;48.884;12.598;2024-03-02T11:24:51;18.45;;;8.80;;
64653;SDS011;51065;48.884;12.598;2024-03-02T11:30:48;19.67;;;8.10;;
64653;SDS011;51065;48.884;12.598;2024-03-02T11:32:56;20.08;;;8.77;;
64653;SDS011;51065;48.884;12.598;2024-03-02T11:35:23;21.42;;;9.18;;
64653;SDS011;51065;48.884;12.598;2024-03-02T11:37:55;20.05;;;9.65;;
64653;SDS011;51065;48.884;12.598;2024-03-02T11:40:27;20.27;;;8.77;;
64653;SDS011;51065;48.884;12.598;2024-03-02T11:42:53;21.13;;;10.75;;
64653;SDS011;51065;48.884;12.598;2024-03-02T11:45:24;20.42;;;8.82;;
64653;SDS011;51065;48.884;12.598;2024-03-02T11:47:50;21.00;;;9.27;;
64653;SDS011;51065;48.884;12.598;2024-03-02T11:50:33;20.95;;;10.00;;
64653;SDS011;51065;48.884;12.598;2024-03-02T11:53:09;21.65;;;9.07;;
64653;SDS011;51065;48.884;12.598;2024-03-02T11:55:39;20.02;;;9.18;;
64653;SDS011;51065;48.884;12.598;2024-03-02T11:58:14;20.85;;;9.60;;
64653;SDS011;51065;48.884;12.598;2024-03-02T12:00:52;21.50;;;8.68;;
64653;SDS011;51065;48.884;12.598;2024-03-02T12:03:20;20.08;;;8.48;;
64653;SDS011;51065;48.884;12.598;2024-03-02T12:05:50;19.42;;;9.10;;
64653;SDS011;51065;48.884;12.598;2024-03-02T12:08:18;18.15;;;8.93;;
64653;SDS011;51065;48.884;12.598;2024-03-02T12:10:43;21.05;;;9.35;;
64653;SDS011;51065;48.884;12.598;2024-03-02T12:13:24;19.30;;;9.07;;
64653;SDS011;51065;48.884;12.598;2024-03-02T12:15:52;19.20;;;8.65;;
64653;SDS011;51065;48.884;12.598;2024-03-02T12:18:20;20.67;;;9.25;;
64653;SDS011;51065;48.884;12.598;2024-03-02T12:20:45;20.58;;;9.60;;
64653;SDS011;51065;48.884;12.598;2024-03-02T12:23:13;23.75;;;10.13;;
64653;SDS011;51065;48.884;12.598;2024-03-02T12:25:39;18.67;;;8.25;;
64653;SDS011;51065;48.884;12.598;2024-03-02T12:28:05;22.63;;;9.63;;
64653;SDS011;51065;48.884;12.598;2024-03-02T12:30:31;21.73;;;9.90;;
64653;SDS011;51065;48.884;12.598;2024-03-02T12:33:00;21.17;;;8.93;;
64653;SDS011;51065;48.884;12.598;2024-03-02T12:35:25;18.80;;;8.73;;
64653;SDS011;51065;48.884;12.598;2024-03-02T12:37:51;20.15;;;8.70;;
64653;SDS011;51065;48.884;12.598;2024-03-02T12:40:18;20.85;;;9.45;;
64653;SDS011;51065;48.884;12.598;2024-03-02T12:42:47;21.40;;;8.80;;
64653;SDS011;51065;48.884;12.598;2024-03-02T12:45:15;21.73;;;9.93;;
64653;SDS011;51065;48.884;12.598;2024-03-02T12:47:41;20.30;;;8.77;;
64653;SDS011;51065;48.884;12.598;2024-03-02T12:50:08;23.02;;;10.13;;
64653;SDS011;51065;48.884;12.598;2024-03-02T12:52:34;20.25;;;8.90;;
64653;SDS011;51065;48.884;12.598;2024-03-02T12:55:00;21.75;;;9.57;;
64653;SDS011;51065;48.884;12.598;2024-03-02T12:57:28;20.15;;;9.15;;
64653;SDS011;51065;48.884;12.598;2024-03-02T12:59:58;20.58;;;9.00;;
64653;SDS011;51065;48.884;12.598;2024-03-02T13:02:27;19.98;;;8.75;;
64653;SDS011;51065;48.884;12.598;2024-03-02T13:04:59;21.02;;;11.52;;
64653;SDS011;51065;48.884;12.598;2024-03-02T13:07:25;21.20;;;9.40;;
64653;SDS011;51065;48.884;12.598;2024-03-02T13:09:51;19.08;;;9.10;;
64653;SDS011;51065;48.884;12.598;2024-03-02T13:12:20;21.20;;;12.10;;
64653;SDS011;51065;48.884;12.598;2024-03-02T13:14:52;21.90;;;9.70;;
64653;SDS011;51065;48.884;12.598;2024-03-02T13:17:18;21.25;;;9.50;;
64653;SDS011;51065;48.884;12.598;2024-03-02T13:19:51;18.98;;;8.85;;
64653;SDS011;51065;48.884;12.598;2024-03-02T13:22:18;20.17;;;8.73;;
64653;SDS011;51065;48.884;12.598;2024-03-02T13:24:43;18.80;;;8.15;;
64653;SDS011;51065;48.884;12.598;2024-03-02T13:27:09;19.83;;;9.00;;
64653;SDS011;51065;48.884;12.598;2024-03-02T13:29:34;18.92;;;8.60;;
64653;SDS011;51065;48.884;12.598;2024-03-02T13:32:01;19.30;;;8.93;;
64653;SDS011;51065;48.884;12.598;2024-03-02T13:34:26;19.92;;;8.38;;
64653;SDS011;51065;48.884;12.598;2024-03-02T13:36:52;19.73;;;8.82;;
64653;SDS011;51065;48.884;12.598;2024-03-02T13:39:17;19.55;;;8.90;;
64653;SDS011;51065;48.884;12.598;2024-03-02T13:41:43;18.85;;;7.93;;
64653;SDS011;51065;48.884;12.598;2024-03-02T13:44:16;20.70;;;9.10;;
64653;SDS011;51065;48.884;12.598;2024-03-02T13:46:42;18.70;;;8.30;;
64653;SDS011;51065;48.884;12.598;2024-03-02T13:49:10;20.38;;;9.00;;
64653;SDS011;51065;48.884;12.598;2024-03-02T13:51:36;18.38;;;8.48;;
64653;SDS011;51065;48.884;12.598;2024-03-02T13:54:02;17.80;;;7.82;;
64653;SDS011;51065;48.884;12.598;2024-03-02T13:56:28;18.35;;;8.55;;
64653;SDS011;51065;48.884;12.598;2024-03-02T13:58:54;17.92;;;7.80;;
64653;SDS011;51065;48.884;12.598;2024-03-02T14:01:20;18.55;;;7.75;;
64653;SDS011;51065;48.884;12.598;2024-03-02T14:03:46;17.13;;;7.53;;
64653;SDS011;51065;48.884;12.598;2024-03-02T14:06:12;17.55;;;7.45;;
64653;SDS011;51065;48.884;12.598;2024-03-02T14:08:37;17.13;;;7.90;;
64653;SDS011;51065;48.884;12.598;2024-03-02T14:11:03;17.60;;;7.32;;
64653;SDS011;51065;48.884;12.598;2024-03-02T14:13:28;19.85;;;8.77;;
64653;SDS011;51065;48.884;12.598;2024-03-02T14:15:54;17.33;;;8.23;;